Time;durP1;ratioP1;P1;durP2;ratioP2;P2;SDS_P1;SDS_P2;PMS_P1;PMS_P2;Temp;Humidity;BMP_temperature;BMP_pressure;BME280_temperature;BME280_humidity;BME280_pressure;Samples;Min_cycle;Max_cycle;Signal;HPM_P1;HPM_P2
2023/05/28 00:01:17;;;;;;;3.40;2.17;;;;;;;22.26;60.72;98649.66;5116461;28;20662;-88
2023/05/28 00:03:43;;;;;;;4.50;2.40;;;;;;;22.16;61.40;98643.63;5115226;28;20184;-87
2023/05/28 00:06:08;;;;;;;7.20;2.50;;;;;;;22.12;61.56;98639.59;5116068;28;20213;-88
2023/05/28 00:08:34;;;;;;;5.67;2.63;;;;;;;22.07;61.96;98643.78;5116065;28;20168;-89
2023/05/28 00:10:59;;;;;;;5.67;3.03;;;;;;;22.04;61.97;98645.78;5116022;28;20212;-88
2023/05/28 00:13:29;;;;;;;5.10;2.67;;;;;;;21.99;61.92;98647.25;5115972;28;20540;-87
2023/05/28 00:15:55;;;;;;;8.07;3.00;;;;;;;21.93;62.42;98639.94;5115684;28;20207;-87
2023/05/28 00:18:21;;;;;;;5.47;2.70;;;;;;;21.92;62.68;98644.44;5115910;28;20240;-87
2023/05/28 00:20:48;;;;;;;4.33;2.50;;;;;;;21.82;63.16;98641.03;5115157;28;20603;-88
2023/05/28 00:23:14;;;;;;;11.30;2.83;;;;;;;21.75;63.57;98639.19;5114310;28;20183;-87
2023/05/28 00:25:40;;;;;;;4.30;2.77;;;;;;;21.69;64.08;98640.69;5115842;28;20176;-87
2023/05/28 00:28:05;;;;;;;5.57;2.77;;;;;;;21.47;65.29;98635.09;5116234;28;20197;-88
2023/05/28 00:30:31;;;;;;;6.90;3.57;;;;;;;21.46;65.68;98630.78;5115919;28;20186;-88
2023/05/28 00:32:56;;;;;;;5.87;2.80;;;;;;;21.50;65.77;98634.78;5115777;28;20215;-89
2023/05/28 00:35:22;;;;;;;5.97;2.83;;;;;;;21.38;66.27;98634.25;5115537;28;20196;-88
2023/05/28 00:37:47;;;;;;;4.77;3.03;;;;;;;21.15;67.64;98625.97;5115809;28;20667;-88
2023/05/28 00:40:16;;;;;;;4.07;2.77;;;;;;;21.09;68.08;98620.44;5114799;28;20205;-88
2023/05/28 00:42:41;;;;;;;5.93;3.13;;;;;;;20.95;68.98;98619.16;5114770;28;20172;-89
2023/05/28 00:45:07;;;;;;;5.53;3.03;;;;;;;20.88;69.89;98615.47;5114742;28;20182;-87
2023/05/28 00:47:33;;;;;;;9.23;3.53;;;;;;;20.89;70.08;98613.63;5115349;27;20171;-88
2023/05/28 00:50:00;;;;;;;6.27;3.23;;;;;;;20.83;70.67;98615.94;5114301;28;20176;-88
2023/05/28 00:52:26;;;;;;;4.50;2.90;;;;;;;20.84;70.99;98612.28;5114320;28;20203;-88
2023/05/28 00:54:55;;;;;;;10.00;3.60;;;;;;;20.75;71.64;98607.06;5113612;28;20199;-88
2023/05/28 00:57:23;;;;;;;9.93;3.43;;;;;;;20.68;71.94;98616.66;5115116;28;20175;-88
2023/05/28 00:59:50;;;;;;;8.80;3.87;;;;;;;20.79;71.75;98603.94;5114905;28;20258;-88
2023/05/28 01:02:16;;;;;;;6.53;3.63;;;;;;;20.73;71.86;98609.88;5115293;28;20167;-90
2023/05/28 01:04:41;;;;;;;5.83;3.27;;;;;;;20.64;72.35;98608.19;5114935;28;20256;-89
2023/05/28 01:07:07;;;;;;;8.27;3.87;;;;;;;20.69;72.35;98608.53;5114923;28;20603;-88
2023/05/28 01:09:33;;;;;;;9.97;3.90;;;;;;;20.67;72.73;98596.38;5114874;28;20599;-88
2023/05/28 01:11:59;;;;;;;7.40;4.20;;;;;;;20.60;73.08;98600.63;5114842;28;20176;-88
2023/05/28 01:14:25;;;;;;;8.47;3.70;;;;;;;20.48;73.37;98608.06;5114740;28;20551;-88
2023/05/28 01:16:51;;;;;;;6.67;3.90;;;;;;;20.52;73.99;98612.06;5114773;28;20171;-88
2023/05/28 01:19:21;;;;;;;13.67;4.87;;;;;;;20.32;75.28;98609.75;5115059;28;20175;-88
2023/05/28 01:21:55;;;;;;;8.67;4.87;;;;;;;20.34;75.55;98608.59;5114413;28;20251;-87
2023/05/28 01:24:22;;;;;;;7.67;4.43;;;;;;;20.21;76.39;98608.97;5114414;28;20197;-87
2023/05/28 01:26:48;;;;;;;9.27;5.17;;;;;;;20.25;76.40;98598.06;5115127;28;20214;-88
2023/05/28 01:29:18;;;;;;;8.33;4.90;;;;;;;20.23;76.12;98598.16;5114481;28;20178;-88
2023/05/28 01:31:44;;;;;;;7.40;3.33;;;;;;;20.34;74.90;98591.78;5108625;27;20206;-89
2023/05/28 01:34:10;;;;;;;8.07;4.13;;;;;;;20.12;75.55;98590.44;5093311;28;20582;-88
2023/05/28 01:36:43;;;;;;;7.57;4.63;;;;;;;20.16;75.24;98592.63;5093234;28;20183;-88
2023/05/28 01:39:12;;;;;;;8.03;4.07;;;;;;;20.16;75.67;98597.97;5093623;28;20188;-87
2023/05/28 01:41:38;;;;;;;6.17;3.50;;;;;;;20.14;76.20;98599.94;5093021;28;20176;-88
2023/05/28 01:44:06;;;;;;;8.83;4.07;;;;;;;20.26;75.05;98595.22;5093805;28;20191;-90
2023/05/28 01:46:32;;;;;;;7.10;4.00;;;;;;;20.32;74.99;98597.28;5092858;28;20543;-87
2023/05/28 01:48:58;;;;;;;7.27;3.97;;;;;;;20.40;74.18;98596.50;5092877;28;20195;-88
2023/05/28 01:51:24;;;;;;;7.23;3.27;;;;;;;20.46;73.85;98602.06;5093019;28;20549;-88
2023/05/28 01:53:50;;;;;;;7.40;4.07;;;;;;;20.52;73.51;98604.06;5127976;27;20193;-87
2023/05/28 01:56:16;;;;;;;6.47;2.77;;;;;;;20.42;73.58;98602.50;5133654;27;20190;-89
2023/05/28 01:58:42;;;;;;;6.50;3.03;;;;;;;20.45;73.36;98602.19;5092659;28;20272;-88
2023/05/28 02:01:15;;;;;;;7.87;3.20;;;;;;;20.41;72.73;98600.84;5093573;28;20177;-88
2023/05/28 02:03:41;;;;;;;5.50;2.90;;;;;;;20.39;72.81;98610.81;5092660;28;20192;-88
2023/05/28 02:06:06;;;;;;;12.20;3.17;;;;;;;20.28;73.63;98613.72;5105431;28;20226;-88
2023/05/28 02:08:32;;;;;;;7.10;3.10;;;;;;;20.28;74.33;98619.03;5114130;28;20175;-87
2023/05/28 02:10:57;;;;;;;5.60;2.80;;;;;;;20.15;73.96;98630.88;5113805;28;20583;-89
2023/05/28 02:13:23;;;;;;;6.87;3.20;;;;;;;20.22;74.42;98636.44;5112876;28;20191;-89
2023/05/28 02:15:48;;;;;;;5.80;3.17;;;;;;;20.23;75.32;98638.09;5112632;28;20555;-88
2023/05/28 02:18:14;;;;;;;6.27;3.17;;;;;;;20.23;75.06;98640.75;5113759;28;20175;-88
2023/05/28 02:20:41;;;;;;;6.03;3.63;;;;;;;20.25;75.22;98635.31;5113396;28;20697;-88
2023/05/28 02:23:07;;;;;;;4.60;3.07;;;;;;;20.23;74.91;98636.28;5113647;28;20197;-88
2023/05/28 02:25:32;;;;;;;5.03;3.17;;;;;;;20.25;75.08;98630.84;5113982;28;20624;-88
2023/05/28 02:27:58;;;;;;;5.90;3.53;;;;;;;20.36;75.18;98643.06;5113559;28;20184;-88
2023/05/28 02:30:23;;;;;;;4.87;2.93;;;;;;;20.43;74.47;98633.47;5113639;28;20185;-88
2023/05/28 02:32:49;;;;;;;7.83;3.63;;;;;;;20.39;74.52;98642.78;5112593;28;20186;-88
2023/05/28 02:35:15;;;;;;;6.00;3.10;;;;;;;20.37;74.76;98642.06;5113497;28;20192;-88
2023/05/28 02:37:40;;;;;;;7.13;3.73;;;;;;;20.37;75.08;98644.72;5113451;28;20190;-88
2023/05/28 02:40:09;;;;;;;8.03;3.30;;;;;;;20.41;74.78;98649.59;5113525;28;20592;-88
2023/05/28 02:42:35;;;;;;;7.50;3.20;;;;;;;20.39;74.66;98650.75;5113741;28;20185;-88
2023/05/28 02:45:00;;;;;;;5.53;2.47;;;;;;;20.38;74.49;98657.91;5113945;28;20183;-87
2023/05/28 02:47:26;;;;;;;6.60;2.97;;;;;;;20.37;74.56;98658.88;5114245;28;20641;-87
2023/05/28 02:49:51;;;;;;;4.37;2.60;;;;;;;20.36;74.48;98664.38;5116977;28;20551;-87
2023/05/28 02:52:17;;;;;;;4.87;2.50;;;;;;;20.32;74.61;98663.00;5117471;28;20620;-88
2023/05/28 02:54:42;;;;;;;5.90;2.60;;;;;;;20.34;74.74;98666.31;5117441;28;20671;-88
2023/05/28 02:57:07;;;;;;;4.90;2.60;;;;;;;20.34;74.68;98671.66;5117435;28;20183;-88
2023/05/28 02:59:33;;;;;;;4.83;2.83;;;;;;;20.37;74.50;98660.69;5117028;28;20236;-87
2023/05/28 03:02:00;;;;;;;8.83;3.07;;;;;;;20.32;74.26;98663.81;5117635;28;20192;-89
2023/05/28 03:04:25;;;;;;;5.27;2.60;;;;;;;20.27;75.13;98665.28;5117628;28;20202;-88
2023/05/28 03:06:50;;;;;;;4.43;2.63;;;;;;;20.30;75.38;98664.97;5116120;28;20635;-90
2023/05/28 03:09:16;;;;;;;7.53;2.50;;;;;;;20.30;75.44;98670.28;5116278;28;20542;-90
2023/05/28 03:11:42;;;;;;;5.00;2.80;;;;;;;20.30;75.70;98665.81;5117590;28;20312;-90
2023/05/28 03:14:07;;;;;;;5.50;3.23;;;;;;;20.27;76.10;98667.94;5117462;27;20656;-91
2023/05/28 03:16:36;;;;;;;5.90;3.13;;;;;;;20.28;76.51;98672.28;5117357;28;20237;-90
2023/05/28 03:19:05;;;;;;;11.70;3.20;;;;;;;20.37;76.56;98666.88;5116919;28;20267;-92
2023/05/28 03:25:07;;;;;;;6.43;3.37;;;;;;;20.38;76.89;98665.03;5112206;28;20195;-93
2023/05/28 03:27:32;;;;;;;8.00;3.23;;;;;;;20.28;77.47;98661.63;5115338;28;20191;-91
2023/05/28 03:29:58;;;;;;;8.13;3.57;;;;;;;20.25;78.01;98659.28;5117298;28;20170;-91
2023/05/28 03:32:24;;;;;;;7.17;3.37;;;;;;;20.23;78.12;98660.25;5115988;28;20187;-91
2023/05/28 03:34:52;;;;;;;6.13;3.43;;;;;;;20.27;78.28;98657.28;5117566;28;20308;-92
2023/05/28 03:37:17;;;;;;;5.40;3.33;;;;;;;20.33;78.36;98665.50;5116074;28;20180;-91
2023/05/28 03:39:53;;;;;;;9.30;3.37;;;;;;;20.32;78.38;98663.81;5115776;28;20180;-91
2023/05/28 03:42:37;;;;;;;7.57;4.20;;;;;;;20.36;78.37;98665.19;5116900;28;20577;-90
2023/05/28 03:45:03;;;;;;;7.90;3.80;;;;;;;20.38;78.45;98663.22;5116843;28;20155;-91
2023/05/28 03:47:30;;;;;;;9.33;3.70;;;;;;;20.45;78.30;98658.09;5115815;28;20175;-92
2023/05/28 03:49:56;;;;;;;5.77;3.53;;;;;;;20.41;78.14;98667.41;5115840;28;20582;-92
2023/05/28 03:52:22;;;;;;;8.27;4.03;;;;;;;20.41;78.24;98664.75;5115622;28;20217;-91
2023/05/28 03:54:47;;;;;;;6.23;4.00;;;;;;;20.46;78.23;98671.28;5115673;28;20613;-90
2023/05/28 03:57:15;;;;;;;5.87;3.20;;;;;;;20.49;77.86;98668.28;5115734;28;20186;-91
2023/05/28 03:59:43;;;;;;;10.47;4.67;;;;;;;20.52;78.12;98669.84;5114996;28;20262;-91
2023/05/28 04:02:09;;;;;;;14.17;7.73;;;;;;;20.60;77.77;98667.19;5115861;28;20614;-90
2023/05/28 04:04:37;;;;;;;19.17;8.17;;;;;;;20.65;78.02;98676.41;5116169;28;20254;-92
2023/05/28 04:07:03;;;;;;;15.77;6.63;;;;;;;20.73;77.62;98665.81;5115462;28;20188;-90
2023/05/28 04:09:38;;;;;;;10.23;6.07;;;;;;;20.80;76.76;98668.69;5116709;28;20176;-91
2023/05/28 04:12:06;;;;;;;14.17;8.13;;;;;;;20.79;76.86;98670.53;5115612;28;20556;-90
2023/05/28 04:14:55;;;;;;;12.17;7.57;;;;;;;20.83;76.67;98677.19;5115416;28;20191;-91
2023/05/28 04:17:25;;;;;;;6.27;4.07;;;;;;;20.87;76.69;98676.88;5115346;28;20214;-91
2023/05/28 04:20:06;;;;;;;6.07;3.73;;;;;;;20.93;76.22;98673.59;5115328;28;20643;-91
2023/05/28 04:22:46;;;;;;;7.60;3.90;;;;;;;20.89;76.52;98678.41;5114899;28;20188;-91
2023/05/28 04:25:20;;;;;;;10.20;3.40;;;;;;;20.93;76.38;98677.13;5115218;28;20211;-91
2023/05/28 04:27:46;;;;;;;6.87;4.10;;;;;;;20.94;76.14;98684.09;5115112;28;20620;-92
2023/05/28 04:30:12;;;;;;;11.23;4.30;;;;;;;20.95;75.91;98688.44;5115093;28;20180;-92
2023/05/28 04:32:40;;;;;;;8.20;5.30;;;;;;;20.93;75.87;98682.44;5115485;28;20186;-93
2023/05/28 04:35:09;;;;;;;6.63;3.77;;;;;;;20.80;76.42;98679.34;5116018;27;20316;-90
2023/05/28 04:37:44;;;;;;;5.27;3.17;;;;;;;20.87;75.98;98693.72;5114934;27;20183;-90
2023/05/28 04:40:22;;;;;;;5.47;3.90;;;;;;;20.79;76.11;98680.34;5116123;28;20170;-91
2023/05/28 04:42:57;;;;;;;6.17;3.53;;;;;;;20.82;76.41;98693.34;5115043;28;20171;-91
2023/05/28 04:45:33;;;;;;;;;;;;;;;;;;;;;
2023/05/28 04:48:01;;;;;;;9.30;3.83;;;;;;;20.80;76.00;98687.34;5116730;28;20526;-90
2023/05/28 04:50:26;;;;;;;6.37;3.30;;;;;;;20.69;76.88;98690.25;5114224;28;20262;-90
2023/05/28 04:52:56;;;;;;;5.53;3.30;;;;;;;20.70;77.06;98690.09;5114593;28;20175;-91
2023/05/28 04:55:27;;;;;;;6.23;3.60;;;;;;;20.69;76.52;98693.75;5107619;28;20202;-90
2023/05/28 04:57:53;;;;;;;9.87;3.37;;;;;;;20.66;76.46;98690.56;5094109;28;20168;-91
2023/05/28 05:00:20;;;;;;;6.27;4.23;;;;;;;20.66;76.43;98687.91;5094331;28;20521;-91
2023/05/28 05:02:45;;;;;;;6.50;3.67;;;;;;;20.71;76.94;98690.94;5094930;28;20641;-91
2023/05/28 05:05:12;;;;;;;7.13;3.37;;;;;;;20.70;76.90;98699.94;5094166;28;20180;-90
2023/05/28 05:07:38;;;;;;;5.83;3.87;;;;;;;20.69;77.41;98699.09;5093888;28;20186;-90
2023/05/28 05:10:09;;;;;;;5.40;3.20;;;;;;;20.79;77.41;98699.00;5107161;28;20197;-91
2023/05/28 05:12:35;;;;;;;5.03;3.03;;;;;;;20.82;76.51;98698.69;5114164;28;20175;-91
2023/05/28 05:15:00;;;;;;;5.00;3.00;;;;;;;20.87;75.95;98706.19;5114701;28;20209;-89
2023/05/28 05:17:26;;;;;;;6.73;3.50;;;;;;;20.80;75.97;98708.66;5114878;28;20187;-90
2023/05/28 05:19:52;;;;;;;6.03;2.73;;;;;;;20.72;76.83;98695.28;5115455;28;20171;-89
2023/05/28 05:22:18;;;;;;;5.27;2.97;;;;;;;20.81;76.98;98695.19;5114841;27;20179;-90
2023/05/28 05:24:45;;;;;;;6.20;3.10;;;;;;;20.90;76.74;98700.56;5114739;28;20179;-89
2023/05/28 05:27:11;;;;;;;6.23;3.57;;;;;;;21.00;77.06;98687.97;5113647;28;20203;-90
2023/05/28 05:29:36;;;;;;;6.20;3.70;;;;;;;20.93;76.47;98698.44;5114634;28;20195;-89
2023/05/28 05:32:02;;;;;;;7.00;3.53;;;;;;;20.97;75.76;98696.28;5114525;28;20531;-90
2023/05/28 05:34:27;;;;;;;5.17;2.90;;;;;;;21.03;75.96;98701.81;5114644;28;20187;-89
2023/05/28 05:36:52;;;;;;;6.57;3.37;;;;;;;21.01;76.89;98698.50;5113631;28;20186;-89
2023/05/28 05:39:18;;;;;;;8.30;3.27;;;;;;;21.11;76.90;98701.91;5113317;28;20274;-88
2023/05/28 05:41:44;;;;;;;5.43;3.17;;;;;;;21.15;75.60;98707.75;5114296;28;20618;-90
2023/05/28 05:44:09;;;;;;;7.83;2.43;;;;;;;21.10;75.97;98708.22;5114577;28;20183;-89
2023/05/28 05:46:35;;;;;;;5.57;2.87;;;;;;;21.18;76.06;98705.59;5114232;28;20182;-90
2023/05/28 05:49:00;;;;;;;7.93;3.33;;;;;;;21.24;76.43;98710.31;5113991;28;20194;-87
2023/05/28 05:51:26;;;;;;;6.83;3.50;;;;;;;21.12;76.47;98705.41;5113153;28;20171;-88
2023/05/28 05:53:51;;;;;;;12.03;3.47;;;;;;;21.22;77.91;98706.13;5114104;28;20221;-88
2023/05/28 05:56:17;;;;;;;8.33;3.77;;;;;;;21.25;77.21;98709.31;5114020;28;20624;-87
2023/05/28 05:58:43;;;;;;;8.17;3.43;;;;;;;21.30;76.58;98704.34;5113905;28;20179;-88
2023/05/28 06:01:08;;;;;;;8.50;3.27;;;;;;;21.24;76.67;98705.00;5114250;28;20186;-87
2023/05/28 06:03:35;;;;;;;6.33;3.57;;;;;;;21.29;77.70;98710.69;5113918;28;20186;-87
2023/05/28 06:06:00;;;;;;;5.53;3.07;;;;;;;21.41;77.53;98701.41;5113719;28;20299;-88
2023/05/28 06:08:26;;;;;;;4.27;2.77;;;;;;;21.54;77.77;98711.63;5113909;28;20633;-87
2023/05/28 06:10:51;;;;;;;5.20;2.90;;;;;;;21.61;76.82;98704.66;5113835;28;20194;-87
2023/05/28 06:13:17;;;;;;;5.03;2.53;;;;;;;21.59;75.77;98704.00;5112492;28;20179;-87
2023/05/28 06:15:44;;;;;;;4.23;2.50;;;;;;;21.63;76.19;98704.50;5113643;28;20195;-87
2023/05/28 06:18:11;;;;;;;4.53;2.83;;;;;;;21.53;75.03;98703.78;5113506;28;20167;-86
2023/05/28 06:20:37;;;;;;;5.17;2.77;;;;;;;21.51;75.38;98703.97;5113749;28;20171;-87
2023/05/28 06:23:03;;;;;;;6.70;3.13;;;;;;;21.61;76.43;98702.00;5112994;28;20179;-86
2023/05/28 06:25:28;;;;;;;6.53;3.53;;;;;;;21.66;75.88;98706.84;5113800;28;20152;-87
2023/05/28 06:27:53;;;;;;;5.70;3.27;;;;;;;21.59;76.16;98706.66;5113400;28;20183;-86
2023/05/28 06:30:19;;;;;;;4.17;2.13;;;;;;;21.48;76.49;98709.59;5113653;28;20622;-87
2023/05/28 06:32:45;;;;;;;5.63;3.07;;;;;;;21.48;77.04;98711.44;5113660;28;20182;-86
2023/05/28 06:35:10;;;;;;;5.60;3.07;;;;;;;21.47;77.83;98705.25;5113824;28;20191;-86
2023/05/28 06:37:36;;;;;;;4.30;2.47;;;;;;;21.63;77.06;98710.66;5113432;28;20304;-87
2023/05/28 06:40:05;;;;;;;4.23;2.60;;;;;;;21.70;75.57;98716.19;5112686;28;20187;-86
2023/05/28 06:42:31;;;;;;;4.50;2.50;;;;;;;21.79;75.54;98712.56;5112579;28;20222;-86
2023/05/28 06:44:58;;;;;;;4.43;2.43;;;;;;;21.91;75.67;98705.94;5113798;28;20175;-87
2023/05/28 06:47:23;;;;;;;3.77;2.30;;;;;;;22.00;74.59;98707.66;5113723;28;20631;-87
2023/05/28 06:49:49;;;;;;;6.20;2.57;;;;;;;21.95;72.35;98709.97;5114049;28;20212;-87
2023/05/28 06:52:15;;;;;;;6.03;2.20;;;;;;;22.08;73.59;98705.00;5113461;28;20202;-87
2023/05/28 06:54:40;;;;;;;3.83;2.23;;;;;;;21.99;71.17;98705.97;5113656;28;20199;-88
2023/05/28 06:57:06;;;;;;;4.40;2.47;;;;;;;21.94;72.59;98714.47;5112579;28;20309;-86
2023/05/28 06:59:31;;;;;;;3.40;1.90;;;;;;;22.08;72.96;98702.34;5112417;28;20186;-86
2023/05/28 07:01:57;;;;;;;4.43;2.40;;;;;;;22.23;73.24;98702.53;5112388;28;20546;-87
2023/05/28 07:04:22;;;;;;;6.60;2.33;;;;;;;22.33;71.87;98708.53;5112677;28;20236;-88
2023/05/28 07:06:48;;;;;;;4.23;2.33;;;;;;;22.42;70.72;98707.56;5112609;28;20266;-87
2023/05/28 07:09:13;;;;;;;4.17;2.47;;;;;;;22.35;71.72;98707.38;5112341;28;20229;-87
2023/05/28 07:11:39;;;;;;;4.77;2.17;;;;;;;22.40;71.39;98705.06;5113244;28;20178;-87
2023/05/28 07:14:04;;;;;;;5.80;2.90;;;;;;;22.35;70.82;98712.72;5113400;28;20215;-87
2023/05/28 07:16:30;;;;;;;5.17;1.83;;;;;;;22.44;71.79;98710.91;5112190;28;20192;-87
2023/05/28 07:18:56;;;;;;;6.30;2.07;;;;;;;22.55;71.51;98705.25;5112212;28;20591;-87
2023/05/28 07:21:21;;;;;;;5.10;2.03;;;;;;;22.53;70.74;98702.75;5113486;28;20168;-87
2023/05/28 07:23:47;;;;;;;3.90;1.97;;;;;;;22.56;70.68;98704.25;5113075;28;20650;-88
2023/05/28 07:26:12;;;;;;;3.90;2.30;;;;;;;22.61;71.01;98707.25;5113110;28;20175;-87
2023/05/28 07:28:38;;;;;;;4.80;2.00;;;;;;;22.72;70.50;98698.91;5113352;28;20175;-87
2023/05/28 07:31:04;;;;;;;6.07;1.90;;;;;;;22.76;70.12;98704.78;5113069;28;20648;-87
2023/05/28 07:33:29;;;;;;;5.37;2.53;;;;;;;22.56;69.75;98702.38;5112986;28;20184;-87
2023/05/28 07:35:54;;;;;;;4.00;2.37;;;;;;;22.67;70.11;98700.44;5115724;28;20206;-87
2023/05/28 07:38:20;;;;;;;6.47;2.50;;;;;;;22.59;68.22;98698.53;5116709;28;20254;-88
2023/05/28 07:40:45;;;;;;;5.17;2.87;;;;;;;22.61;69.38;98709.94;5116702;28;20202;-87
2023/05/28 07:43:11;;;;;;;6.27;2.80;;;;;;;22.64;69.54;98704.28;5115672;28;20172;-87
2023/05/28 07:45:36;;;;;;;6.00;2.27;;;;;;;22.60;68.36;98700.22;5115870;28;20183;-87
2023/05/28 07:48:02;;;;;;;5.80;2.37;;;;;;;22.73;68.84;98708.59;5116582;28;20179;-88
2023/05/28 07:50:28;;;;;;;6.30;2.70;;;;;;;22.80;67.96;98690.09;5116764;28;20175;-88
2023/05/28 07:52:53;;;;;;;3.77;1.90;;;;;;;22.71;68.59;98689.25;5116464;28;20183;-88
2023/05/28 07:55:19;;;;;;;4.67;2.43;;;;;;;22.78;69.21;98692.06;5116346;28;20264;-87
2023/05/28 07:57:44;;;;;;;3.90;2.20;;;;;;;22.86;68.58;98684.03;5116630;28;20258;-88
2023/05/28 08:00:11;;;;;;;5.07;2.37;;;;;;;22.76;68.59;98678.03;5116309;27;20182;-88
2023/05/28 08:02:36;;;;;;;7.23;2.40;;;;;;;22.74;68.26;98682.72;5116297;28;20179;-87
2023/05/28 08:05:02;;;;;;;3.53;2.27;;;;;;;22.68;68.02;98697.59;5116219;27;20168;-87
2023/05/28 08:07:28;;;;;;;9.03;2.53;;;;;;;22.68;68.39;98694.09;5116053;28;20187;-88
2023/05/28 08:09:54;;;;;;;10.03;2.73;;;;;;;22.77;68.63;98690.41;5116113;28;20176;-87
2023/05/28 08:12:19;;;;;;;5.17;2.20;;;;;;;22.76;69.35;98689.56;5116361;28;20194;-87
2023/05/28 08:14:45;;;;;;;5.10;2.03;;;;;;;22.75;68.97;98690.56;5115635;28;20263;-89
2023/05/28 08:17:10;;;;;;;4.93;2.40;;;;;;;22.77;69.52;98696.59;5115051;28;20702;-87
2023/05/28 08:19:36;;;;;;;8.07;2.60;;;;;;;22.82;69.91;98694.25;5115944;28;20180;-87
2023/05/28 08:22:01;;;;;;;5.20;2.50;;;;;;;22.95;69.82;98696.41;5115693;28;20255;-88
2023/05/28 08:24:27;;;;;;;4.73;2.20;;;;;;;23.01;69.91;98695.72;5115778;28;20522;-88
2023/05/28 08:26:52;;;;;;;5.60;2.70;;;;;;;22.99;69.07;98690.53;5114836;28;20186;-88
2023/05/28 08:29:18;;;;;;;9.43;2.57;;;;;;;23.12;69.23;98690.00;5115985;28;20171;-87
2023/05/28 08:31:43;;;;;;;7.33;2.27;;;;;;;23.15;68.29;98689.69;5115715;28;20191;-88
2023/05/28 08:34:08;;;;;;;4.67;2.50;;;;;;;23.27;67.95;98686.47;5114662;28;20656;-87
2023/05/28 08:36:36;;;;;;;12.13;3.07;;;;;;;23.53;68.04;98678.22;5115820;28;20207;-87
2023/05/28 08:39:01;;;;;;;7.20;2.60;;;;;;;23.78;64.85;98679.78;5114788;28;20588;-88
2023/05/28 08:41:27;;;;;;;4.60;2.30;;;;;;;23.74;65.84;98675.78;5115438;28;20175;-88
2023/05/28 08:43:52;;;;;;;5.57;2.07;;;;;;;23.79;66.33;98678.75;5115482;28;20176;-88
2023/05/28 08:46:19;;;;;;;7.13;2.40;;;;;;;23.97;65.95;98683.03;5114715;28;20179;-88
2023/05/28 08:48:45;;;;;;;6.63;2.20;;;;;;;23.96;64.49;98700.09;5115345;28;20686;-89
2023/05/28 08:51:11;;;;;;;7.07;1.90;;;;;;;23.71;64.18;98684.19;5115328;28;20262;-88
2023/05/28 08:53:43;;;;;;;3.37;1.53;;;;;;;23.72;64.72;98688.50;5114344;28;20218;-87
2023/05/28 08:56:09;;;;;;;3.27;1.70;;;;;;;23.66;65.37;98685.69;5114161;28;20199;-87
2023/05/28 08:58:38;;;;;;;4.03;2.07;;;;;;;23.68;64.13;98700.59;5115185;28;20172;-88
2023/05/28 09:01:08;;;;;;;5.57;2.00;;;;;;;23.62;64.25;98701.25;5114900;28;20235;-87
2023/05/28 09:03:35;;;;;;;4.83;2.00;;;;;;;23.64;64.58;98703.75;5115000;28;20170;-90
2023/05/28 09:06:01;;;;;;;4.37;1.90;;;;;;;23.69;64.99;98701.38;5113924;28;20205;-88
2023/05/28 09:08:26;;;;;;;4.17;2.20;;;;;;;23.72;65.44;98699.22;5115000;28;20182;-88
2023/05/28 09:10:55;;;;;;;2.70;1.63;;;;;;;23.70;65.10;98695.88;5114904;28;20528;-88
2023/05/28 09:13:21;;;;;;;3.93;1.83;;;;;;;23.67;67.12;98695.38;5115443;28;20167;-88
2023/05/28 09:15:51;;;;;;;3.80;1.83;;;;;;;23.56;67.31;98685.91;5113597;28;20214;-88
2023/05/28 09:18:20;;;;;;;4.43;2.03;;;;;;;23.73;66.36;98681.31;5114757;28;20179;-88
2023/05/28 09:20:47;;;;;;;9.23;2.30;;;;;;;23.99;66.78;98683.69;5114671;28;20210;-88
2023/05/28 09:23:16;;;;;;;5.53;2.43;;;;;;;24.19;64.81;98682.25;5114558;28;20179;-89
2023/05/28 09:25:42;;;;;;;10.57;2.00;;;;;;;24.36;64.82;98689.16;5113986;28;20166;-89
2023/05/28 09:28:07;;;;;;;4.93;2.40;;;;;;;24.27;64.84;98677.66;5113500;28;20183;-89
2023/05/28 09:30:37;;;;;;;7.13;2.40;;;;;;;24.38;64.27;98684.47;5114486;28;20171;-88
2023/05/28 09:33:03;;;;;;;5.30;2.40;;;;;;;24.38;65.17;98682.63;5114795;28;20203;-88
2023/05/28 09:35:30;;;;;;;5.07;2.77;;;;;;;24.42;65.97;98683.09;5113899;28;20195;-88
2023/05/28 09:38:17;;;;;;;4.40;1.77;;;;;;;24.65;64.95;98686.59;5114435;28;20677;-89
2023/05/28 09:40:45;;;;;;;4.53;2.93;;;;;;;24.87;65.68;98675.00;5114638;28;20179;-88
2023/05/28 09:43:11;;;;;;;4.33;1.97;;;;;;;24.93;63.73;98673.47;5114856;28;20267;-89
2023/05/28 09:45:37;;;;;;;5.17;3.20;;;;;;;24.54;62.59;98681.66;5114271;28;20591;-90
2023/05/28 09:48:03;;;;;;;6.40;2.17;;;;;;;24.62;64.32;98681.59;5114305;28;20167;-88
2023/05/28 09:50:29;;;;;;;4.80;2.30;;;;;;;24.69;64.23;98679.00;5103480;28;20242;-88
2023/05/28 09:52:56;;;;;;;6.20;2.40;;;;;;;24.97;63.91;98675.59;5093809;28;20172;-88
2023/05/28 09:55:27;;;;;;;6.33;2.80;;;;;;;25.18;64.09;98666.00;5093857;28;20200;-88
2023/05/28 09:58:02;;;;;;;3.47;2.27;;;;;;;25.41;62.21;98666.75;5109251;28;20622;-88
2023/05/28 10:00:52;;;;;;;4.47;2.30;;;;;;;25.54;61.68;98666.94;5114061;28;20164;-89
2023/05/28 10:03:43;;;;;;;5.00;2.43;;;;;;;25.71;60.25;98665.72;5112758;28;20184;-88
2023/05/28 10:06:17;;;;;;;5.80;1.80;;;;;;;25.64;59.28;98659.44;5112682;28;20159;-90
2023/05/28 10:08:50;;;;;;;5.60;2.03;;;;;;;25.64;60.15;98659.44;5112973;28;20259;-89
2023/05/28 10:11:18;;;;;;;4.57;2.30;;;;;;;25.75;57.88;98656.28;5100087;28;20180;-88
2023/05/28 10:13:45;;;;;;;4.43;2.30;;;;;;;25.71;58.29;98652.28;5113504;28;20206;-89
2023/05/28 10:16:12;;;;;;;6.87;2.53;;;;;;;25.82;60.61;98654.50;5109541;28;20584;-89
2023/05/28 10:18:38;;;;;;;5.23;2.20;;;;;;;25.84;59.51;98657.81;5095978;28;20651;-89
2023/05/28 10:21:05;;;;;;;4.70;2.53;;;;;;;25.71;60.12;98667.59;5106555;28;20187;-88
2023/05/28 10:23:32;;;;;;;7.23;2.67;;;;;;;25.65;62.76;98666.47;5112136;28;20561;-88
2023/05/28 10:25:58;;;;;;;3.77;2.27;;;;;;;25.48;63.35;98657.78;5113431;28;20532;-88
2023/05/28 10:28:28;;;;;;;6.30;2.60;;;;;;;25.40;65.48;98643.59;5112179;28;20199;-88
2023/05/28 10:31:06;;;;;;;4.00;2.33;;;;;;;25.34;66.12;98637.13;5111957;28;20191;-88
2023/05/28 10:33:37;;;;;;;6.30;2.50;;;;;;;25.26;66.30;98636.41;5113559;28;20183;-88
2023/05/28 10:36:03;;;;;;;5.53;2.67;;;;;;;25.33;66.67;98637.31;5113823;28;20187;-89
2023/05/28 10:38:29;;;;;;;3.93;2.37;;;;;;;25.30;65.84;98626.97;5113516;28;20175;-88
2023/05/28 10:41:02;;;;;;;5.03;2.30;;;;;;;25.35;67.92;98629.91;5114052;28;20194;-88
2023/05/28 10:43:45;;;;;;;5.70;2.43;;;;;;;25.57;65.76;98629.84;5112273;28;20599;-88
2023/05/28 10:46:10;;;;;;;5.43;2.80;;;;;;;25.68;64.21;98625.00;5113157;28;20170;-87
2023/05/28 10:49:14;;;;;;;3.47;2.10;;;;;;;25.68;62.32;98625.84;5113459;28;20560;-88
2023/05/28 10:51:51;;;;;;;5.13;2.20;;;;;;;25.51;61.39;98621.69;5113765;28;20163;-88
2023/05/28 10:54:29;;;;;;;4.40;2.20;;;;;;;25.35;60.23;98611.13;5112470;28;20187;-88
2023/05/28 10:57:15;;;;;;;6.00;2.27;;;;;;;25.39;64.72;98609.75;5112714;28;20674;-89
2023/05/28 10:59:46;;;;;;;4.47;2.33;;;;;;;25.35;61.25;98606.59;5113437;28;20267;-88
2023/05/28 11:02:15;;;;;;;5.30;2.40;;;;;;;25.27;61.95;98605.84;5113892;28;20194;-88
2023/05/28 11:04:41;;;;;;;6.57;2.43;;;;;;;25.50;63.07;98601.22;5113593;28;20175;-89
2023/05/28 11:07:07;;;;;;;6.77;2.07;;;;;;;25.69;63.35;98608.69;5113265;28;20179;-88
2023/05/28 11:09:33;;;;;;;4.00;1.90;;;;;;;25.72;62.73;98610.16;5117058;28;20168;-88
2023/05/28 11:12:00;;;;;;;4.63;2.33;;;;;;;25.86;60.85;98617.38;5117294;28;20179;-89
2023/05/28 11:14:30;;;;;;;7.27;2.30;;;;;;;25.98;60.96;98611.28;5116163;28;20646;-89
2023/05/28 11:16:55;;;;;;;5.43;2.50;;;;;;;25.96;60.10;98624.09;5117726;28;20176;-88
2023/05/28 11:19:21;;;;;;;3.87;1.77;;;;;;;25.79;60.93;98617.28;5116195;28;20175;-90
2023/05/28 11:21:50;;;;;;;3.33;1.30;;;;;;;25.51;59.07;98617.16;5117976;28;20236;-91
2023/05/28 11:24:16;;;;;;;2.03;1.13;;;;;;;25.20;58.79;98619.19;5115866;28;20385;-90
2023/05/28 11:26:41;;;;;;;2.37;1.00;;;;;;;25.21;58.01;98607.44;5117373;28;20208;-88
2023/05/28 11:29:07;;;;;;;1.63;0.70;;;;;;;24.90;58.58;98604.94;5117202;28;20163;-90
2023/05/28 11:31:42;;;;;;;1.47;0.60;;;;;;;24.88;55.76;98604.31;5116998;28;20180;-89
2023/05/28 11:34:08;;;;;;;2.07;1.13;;;;;;;24.94;55.96;98597.38;5117119;28;20270;-89
2023/05/28 11:36:41;;;;;;;3.97;0.90;;;;;;;24.43;54.97;98599.00;5117151;28;20199;-90
2023/05/28 11:39:07;;;;;;;3.07;1.40;;;;;;;24.46;57.75;98612.06;5115888;28;20186;-88